createdAt,value
2022-12-23T00:00:18.314Z,93852
2022-12-23T00:03:43.675Z,93852
2022-12-23T00:07:08.707Z,93845
2022-12-23T00:10:33.891Z,93841
2022-12-23T00:13:59.096Z,93837
2022-12-23T00:17:24.343Z,93832
2022-12-23T00:20:49.412Z,93838
2022-12-23T00:24:14.592Z,93835
2022-12-23T00:27:39.775Z,93828
2022-12-23T00:31:04.985Z,93819
2022-12-23T00:34:30.103Z,93811
2022-12-23T00:37:55.298Z,93811
2022-12-23T00:41:20.456Z,93814
2022-12-23T00:44:45.656Z,93815
2022-12-23T00:48:10.846Z,93825
2022-12-23T00:51:35.990Z,93820
2022-12-23T00:55:01.155Z,93820
2022-12-23T00:58:26.351Z,93823
2022-12-23T01:01:51.722Z,93799
2022-12-23T01:05:16.706Z,93801
2022-12-23T01:08:41.858Z,93793
2022-12-23T01:12:07.065Z,93810
2022-12-23T01:15:32.204Z,93813
2022-12-23T01:18:57.373Z,93808
2022-12-23T01:22:22.582Z,93791
2022-12-23T01:25:47.707Z,93794
2022-12-23T01:29:12.922Z,93798
2022-12-23T01:32:38.046Z,93800
2022-12-23T01:36:03.198Z,93797
2022-12-23T01:39:28.404Z,93806
2022-12-23T01:42:53.556Z,93800
2022-12-23T01:46:18.845Z,93792
2022-12-23T01:49:43.909Z,93785
2022-12-23T01:53:09.080Z,93781
2022-12-23T01:56:34.260Z,93790
2022-12-23T01:59:59.406Z,93774
2022-12-23T02:03:24.636Z,93769
2022-12-23T02:06:49.747Z,93769
2022-12-23T02:10:14.898Z,93777
2022-12-23T02:13:40.103Z,93780
2022-12-23T02:17:05.366Z,93778
2022-12-23T02:20:30.452Z,93777
2022-12-23T02:23:55.638Z,93788
2022-12-23T02:27:20.837Z,93780
2022-12-23T02:30:46.135Z,93784
2022-12-23T02:34:11.186Z,93784
2022-12-23T02:37:36.325Z,93782
2022-12-23T02:41:01.521Z,93779
2022-12-23T02:44:26.654Z,93783
2022-12-23T02:47:51.955Z,93788
2022-12-23T02:51:16.996Z,93799
2022-12-23T02:54:42.164Z,93798
2022-12-23T02:58:07.328Z,93798
2022-12-23T03:01:32.532Z,93801
2022-12-23T03:04:58.797Z,93801
2022-12-23T03:08:22.831Z,93800
2022-12-23T03:11:47.984Z,93796
2022-12-23T03:15:13.168Z,93805
2022-12-23T03:18:38.295Z,93805
2022-12-23T03:22:03.529Z,93810
2022-12-23T03:25:28.651Z,93807
2022-12-23T03:28:53.830Z,93814
2022-12-23T03:32:18.998Z,93812
2022-12-23T03:35:44.149Z,93811
2022-12-23T03:39:09.348Z,93815
2022-12-23T03:42:34.479Z,93823
2022-12-23T03:45:59.696Z,93815
2022-12-23T03:49:24.826Z,93822
2022-12-23T03:52:49.975Z,93828
2022-12-23T03:56:15.165Z,93828
2022-12-23T03:59:40.298Z,93823
2022-12-23T04:03:05.528Z,93829
2022-12-23T04:06:30.640Z,93832
2022-12-23T04:09:55.819Z,93833
2022-12-23T04:13:20.998Z,93828
2022-12-23T04:16:46.154Z,93834
2022-12-23T04:20:11.316Z,93832
2022-12-23T04:23:36.486Z,93838
2022-12-23T04:27:01.690Z,93841
2022-12-23T04:30:33.481Z,93840
2022-12-23T04:33:52.010Z,93841
2022-12-23T04:37:17.187Z,93841
2022-12-23T04:40:42.351Z,93842
2022-12-23T04:44:07.523Z,93848
2022-12-23T04:47:32.715Z,93851
2022-12-23T04:50:57.852Z,93859
2022-12-23T04:54:23.039Z,93855
2022-12-23T04:57:48.193Z,93858
2022-12-23T05:01:13.378Z,93852
2022-12-23T05:04:38.630Z,93857
2022-12-23T05:08:03.656Z,93856
2022-12-23T05:11:28.836Z,93846
2022-12-23T05:14:59.670Z,93856
2022-12-23T05:18:24.845Z,93857
2022-12-23T05:21:50.112Z,93858
2022-12-23T05:25:15.256Z,93861
2022-12-23T05:28:40.414Z,93864
2022-12-23T05:32:05.671Z,93874
2022-12-23T05:35:30.741Z,93876
2022-12-23T05:38:55.944Z,93882
2022-12-23T05:42:21.190Z,93879
2022-12-23T05:45:46.409Z,93882
2022-12-23T05:49:11.545Z,93878
2022-12-23T05:52:36.737Z,93881
2022-12-23T05:56:01.948Z,93880
2022-12-23T05:59:30.859Z,93887
2022-12-23T06:02:54.061Z,93884
2022-12-23T06:06:17.475Z,93883
2022-12-23T06:09:42.659Z,93879
2022-12-23T06:13:07.881Z,93887
2022-12-23T06:16:33.090Z,93888
2022-12-23T06:19:58.227Z,93899
2022-12-23T06:23:23.423Z,93902
2022-12-23T06:26:51.971Z,93893
2022-12-23T06:30:13.811Z,93897
2022-12-23T06:33:38.969Z,93890
2022-12-23T06:37:04.161Z,93894
2022-12-23T06:40:29.446Z,93897
2022-12-23T06:43:54.827Z,93902
2022-12-23T06:47:19.784Z,93917
2022-12-23T06:50:44.930Z,93923
2022-12-23T06:54:10.104Z,93929
2022-12-23T06:57:35.290Z,93932
2022-12-23T07:01:00.519Z,93947
2022-12-23T07:04:25.699Z,93956
2022-12-23T07:07:50.864Z,93956
2022-12-23T07:11:16.034Z,93965
2022-12-23T07:14:41.224Z,93966
2022-12-23T07:18:06.416Z,93974
2022-12-23T07:21:31.641Z,93967
2022-12-23T07:24:56.742Z,93966
2022-12-23T07:28:21.954Z,93966
2022-12-23T07:31:47.175Z,93965
2022-12-23T07:35:12.328Z,93972
2022-12-23T07:38:37.558Z,93970
2022-12-23T07:42:25.440Z,93981
2022-12-23T07:45:28.056Z,93990
2022-12-23T07:48:53.175Z,93981
2022-12-23T07:52:18.372Z,93980
2022-12-23T07:55:44.138Z,93984
2022-12-23T07:59:09.448Z,93992
2022-12-23T08:02:35.010Z,93982
2022-12-23T08:06:00.034Z,93989
2022-12-23T08:09:25.258Z,93997
2022-12-23T08:12:50.457Z,94002
2022-12-23T08:16:15.713Z,93997
2022-12-23T08:19:40.860Z,93995
2022-12-23T08:23:06.044Z,93996
2022-12-23T08:26:31.220Z,94002
2022-12-23T08:29:56.407Z,94005
2022-12-23T08:33:21.602Z,94008
2022-12-23T08:36:46.825Z,94015
2022-12-23T08:40:11.988Z,94019
2022-12-23T08:43:37.189Z,94021
2022-12-23T08:47:02.404Z,94021
2022-12-23T08:50:27.556Z,94021
2022-12-23T08:53:58.054Z,94015
2022-12-23T08:57:20.254Z,94023
2022-12-23T09:00:45.433Z,94027
2022-12-23T09:04:10.637Z,94037
2022-12-23T09:07:35.823Z,94049
2022-12-23T09:11:00.992Z,94055
2022-12-23T09:14:26.195Z,94058
2022-12-23T09:17:51.352Z,94064
2022-12-23T09:21:16.566Z,94064
2022-12-23T09:24:41.725Z,94060
2022-12-23T09:28:06.948Z,94059
2022-12-23T09:31:36.409Z,94062
2022-12-23T09:34:57.291Z,94063
2022-12-23T09:38:22.514Z,94067
2022-12-23T09:41:47.674Z,94071
2022-12-23T09:45:12.867Z,94070
2022-12-23T09:48:38.049Z,94061
2022-12-23T09:52:03.222Z,94060
2022-12-23T09:55:28.449Z,94055
2022-12-23T09:58:53.610Z,94053
2022-12-23T10:02:18.899Z,94056
2022-12-23T10:05:43.977Z,94058
2022-12-23T10:09:09.123Z,94062
2022-12-23T10:12:39.363Z,94058
2022-12-23T10:15:59.601Z,94056
2022-12-23T10:19:24.655Z,94051
2022-12-23T10:22:49.836Z,94050
2022-12-23T10:26:15.017Z,94038
2022-12-23T10:29:40.228Z,94041
2022-12-23T10:33:05.366Z,94041
2022-12-23T10:36:30.589Z,94052
2022-12-23T10:39:55.762Z,94046
2022-12-23T10:43:20.922Z,94047
2022-12-23T10:46:46.186Z,94040
2022-12-23T10:50:11.285Z,94038
2022-12-23T10:53:36.913Z,94041
2022-12-23T10:57:01.625Z,94032
2022-12-23T11:00:26.844Z,94024
2022-12-23T11:03:52.082Z,94021
2022-12-23T11:10:42.332Z,94025
2022-12-23T11:14:07.572Z,94023
2022-12-23T11:17:32.739Z,94042
2022-12-23T11:20:57.956Z,94046
2022-12-23T11:24:23.107Z,94043
2022-12-23T11:27:48.298Z,94040
2022-12-23T11:31:13.504Z,94024
2022-12-23T11:34:38.616Z,94015
2022-12-23T11:38:03.962Z,94013
2022-12-23T11:41:29.010Z,94012
2022-12-23T11:44:54.228Z,94019
2022-12-23T11:48:19.421Z,94018
2022-12-23T11:51:44.627Z,94014
2022-12-23T11:55:09.844Z,94011
2022-12-23T11:58:35.058Z,94007
2022-12-23T12:02:00.359Z,94002
2022-12-23T12:05:25.447Z,94002
2022-12-23T12:08:50.707Z,94008
2022-12-23T12:12:15.932Z,94003
2022-12-23T12:15:41.097Z,93996
2022-12-23T12:19:06.289Z,94001
2022-12-23T12:22:31.485Z,93992
2022-12-23T12:25:56.690Z,93989
2022-12-23T12:29:21.928Z,93988
2022-12-23T12:32:47.109Z,93989
2022-12-23T12:36:12.335Z,93985
2022-12-23T12:39:37.498Z,93972
2022-12-23T12:43:02.710Z,93962
2022-12-23T12:46:27.963Z,93966
2022-12-23T12:49:53.096Z,93973
2022-12-23T12:53:18.348Z,93968
2022-12-23T12:56:43.539Z,93960
2022-12-23T13:00:08.744Z,93945
2022-12-23T13:03:33.992Z,93935
2022-12-23T13:06:59.189Z,93928
2022-12-23T13:10:24.435Z,93924
2022-12-23T13:13:49.709Z,93927
2022-12-23T13:17:15.000Z,93927
2022-12-23T13:20:40.195Z,93924
2022-12-23T13:24:05.388Z,93922
2022-12-23T13:27:30.613Z,93910
2022-12-23T13:30:55.942Z,93906
2022-12-23T13:34:21.151Z,93898
2022-12-23T13:37:46.372Z,93907
2022-12-23T13:41:11.554Z,93902
2022-12-23T13:44:36.753Z,93907
2022-12-23T13:48:04.975Z,93897
2022-12-23T13:51:27.161Z,93890
2022-12-23T13:54:52.441Z,93886
2022-12-23T13:58:17.648Z,93876
2022-12-23T14:01:42.920Z,93873
2022-12-23T14:05:11.790Z,93881
2022-12-23T14:08:33.303Z,93875
2022-12-23T14:12:02.759Z,93873
2022-12-23T14:15:23.742Z,93861
2022-12-23T14:18:48.913Z,93877
2022-12-23T14:22:14.139Z,93871
2022-12-23T14:25:39.355Z,93859
2022-12-23T14:29:04.595Z,93863
2022-12-23T15:05:57.764Z,93823
2022-12-23T15:09:23.031Z,93821
2022-12-23T15:12:48.264Z,93817
2022-12-23T15:16:13.529Z,93813
2022-12-23T15:19:38.759Z,93805
2022-12-23T15:23:04.075Z,93800
2022-12-23T15:26:29.218Z,93790
2022-12-23T15:29:54.518Z,93799
2022-12-23T15:33:51.681Z,93791
2022-12-23T15:36:45.081Z,93793
2022-12-23T15:40:13.493Z,93796
2022-12-23T15:43:35.551Z,93805
2022-12-23T15:47:00.849Z,93812
2022-12-23T15:50:26.010Z,93813
2022-12-23T15:53:51.282Z,93812
2022-12-23T15:57:16.545Z,93804
2022-12-23T16:00:41.893Z,93805
2022-12-23T16:04:07.178Z,93803
2022-12-23T16:07:32.254Z,93794
2022-12-23T16:10:57.531Z,93792
2022-12-23T16:14:22.782Z,93789
2022-12-23T16:17:48.001Z,93775
2022-12-23T16:21:13.224Z,93780
2022-12-23T16:24:38.471Z,93768
2022-12-23T16:28:03.717Z,93757
2022-12-23T16:31:29.026Z,93749
2022-12-23T16:34:54.182Z,93736
2022-12-23T16:38:19.435Z,93728
2022-12-23T16:41:44.668Z,93723
2022-12-23T16:45:09.936Z,93717
2022-12-23T16:48:35.171Z,93716
2022-12-23T16:52:00.400Z,93714
2022-12-23T16:55:25.653Z,93718
2022-12-23T16:58:50.900Z,93718
2022-12-23T17:02:16.261Z,93717
2022-12-23T17:05:41.405Z,93725
2022-12-23T17:09:06.616Z,93723
2022-12-23T17:12:31.904Z,93725
2022-12-23T17:15:57.169Z,93713
2022-12-23T17:19:28.239Z,93696
2022-12-23T17:22:47.709Z,93699
2022-12-23T17:26:12.958Z,93688
2022-12-23T17:29:38.211Z,93681
2022-12-23T17:33:03.558Z,93686
2022-12-23T17:36:28.893Z,93691
2022-12-23T17:39:54.168Z,93684
2022-12-23T17:43:19.367Z,93684
2022-12-23T17:46:44.627Z,93679
2022-12-23T17:50:09.852Z,93673
2022-12-23T17:53:35.162Z,93678
2022-12-23T17:57:00.426Z,93685
2022-12-23T18:00:33.746Z,93688
2022-12-23T18:03:50.888Z,93679
2022-12-23T18:07:16.145Z,93678
2022-12-23T18:10:41.360Z,93680
2022-12-23T18:14:06.641Z,93662
2022-12-23T18:17:31.888Z,93661
2022-12-23T18:20:57.120Z,93650
2022-12-23T18:24:22.357Z,93639
2022-12-23T18:27:47.600Z,93646
2022-12-23T18:31:13.687Z,93644
2022-12-23T18:34:38.815Z,93635
2022-12-23T18:38:04.124Z,93617
2022-12-23T18:41:29.417Z,93610
2022-12-23T18:44:54.735Z,93609
2022-12-23T18:48:20.009Z,93607
2022-12-23T18:51:45.231Z,93610
2022-12-23T18:55:10.515Z,93603
2022-12-23T18:58:35.782Z,93611
2022-12-23T19:02:01.141Z,93612
2022-12-23T19:05:26.384Z,93614
2022-12-23T19:08:51.758Z,93611
2022-12-23T19:12:17.062Z,93620
2022-12-23T19:15:42.333Z,93628
2022-12-23T19:19:07.601Z,93632
2022-12-23T19:22:32.905Z,93632
2022-12-23T19:25:58.117Z,93630
2022-12-23T19:29:23.422Z,93625
2022-12-23T19:32:48.709Z,93627
2022-12-23T19:36:13.994Z,93629
2022-12-23T19:39:39.225Z,93647
2022-12-23T19:43:04.532Z,93644
2022-12-23T19:46:29.914Z,93648
2022-12-23T19:49:55.199Z,93651
2022-12-23T19:53:20.453Z,93663
2022-12-23T19:56:45.706Z,93680
2022-12-23T20:00:10.928Z,93670
2022-12-23T20:03:36.181Z,93664
2022-12-23T20:07:01.434Z,93668
2022-12-23T20:10:26.691Z,93670
2022-12-23T20:13:51.980Z,93684
2022-12-23T20:17:17.265Z,93685
2022-12-23T20:20:42.486Z,93701
2022-12-23T20:24:07.783Z,93702
2022-12-23T20:27:33.012Z,93708
2022-12-23T20:30:58.378Z,93699
2022-12-23T20:34:23.519Z,93682
2022-12-23T20:37:48.773Z,93684
2022-12-23T20:41:14.042Z,93678
2022-12-23T20:44:39.271Z,93696
2022-12-23T20:48:04.544Z,93696
2022-12-23T20:51:29.758Z,93700
2022-12-23T20:54:55.026Z,93701
2022-12-23T20:58:20.275Z,93689
2022-12-23T21:01:45.519Z,93694
2022-12-23T21:05:10.798Z,93691
2022-12-23T21:08:35.996Z,93690
2022-12-23T21:12:01.302Z,93688
2022-12-23T21:15:26.586Z,93686
2022-12-23T21:18:51.857Z,93681
2022-12-23T21:22:17.137Z,93685
2022-12-23T21:25:42.366Z,93701
2022-12-23T21:29:07.603Z,93709
2022-12-23T21:32:32.908Z,93710
2022-12-23T21:35:58.206Z,93719
2022-12-23T21:39:23.462Z,93725
2022-12-23T21:42:48.693Z,93746
2022-12-23T21:46:13.970Z,93752
2022-12-23T21:49:39.194Z,93759
2022-12-23T21:53:04.453Z,93754
2022-12-23T21:56:29.730Z,93778
2022-12-23T21:59:54.981Z,93787
2022-12-23T22:03:20.218Z,93792
2022-12-23T22:06:45.443Z,93798
2022-12-23T22:10:10.707Z,93802
2022-12-23T22:13:35.981Z,93807
2022-12-23T22:17:01.219Z,93808
2022-12-23T22:20:26.453Z,93814
2022-12-23T22:23:51.679Z,93810
2022-12-23T22:27:16.920Z,93812
2022-12-23T22:30:42.189Z,93816
2022-12-23T22:34:07.440Z,93823
2022-12-23T22:37:32.668Z,93819
2022-12-23T22:40:57.919Z,93825
2022-12-23T22:44:23.177Z,93837
2022-12-23T22:47:48.460Z,93840
2022-12-23T22:51:13.638Z,93832
2022-12-23T22:54:38.880Z,93835
2022-12-23T22:58:04.142Z,93843
2022-12-23T23:01:29.416Z,93843
2022-12-23T23:04:54.687Z,93838
2022-12-23T23:08:19.858Z,93836
2022-12-23T23:11:45.129Z,93835
2022-12-23T23:15:10.354Z,93851
2022-12-23T23:18:35.599Z,93857
2022-12-23T23:22:00.866Z,93860
2022-12-23T23:25:26.127Z,93859
2022-12-23T23:28:51.361Z,93863
2022-12-23T23:32:16.619Z,93864
2022-12-23T23:35:41.838Z,93869
2022-12-23T23:39:07.102Z,93875
2022-12-23T23:42:32.329Z,93876
2022-12-23T23:45:57.613Z,93883
2022-12-23T23:49:22.821Z,93885
2022-12-23T23:52:48.049Z,93887
2022-12-23T23:56:13.351Z,93884
2022-12-23T23:59:38.545Z,93893
